• Join FlightAware (Why Join?)
  • Login
  • US Flag 
01:23AM EDT


 

Airport Tracker/Info


-or-


 

Live Flight TrackerFlight Track Log ✈ ASQ5941 ✈ 21-May-2013 ✈ KAVP - KORD

Flight Track Log - Related Links

Times and Time Zones

All times are in EDT time to prevent confusion due to time zone crossing. See the ASQ5941 flight status page for this flight to view local times or setup timezone preferences in your user account.

Time Position Orientation Groundspeed Altitude Reporting Facility
EDT Latitude Longitude Course Direction KTS MPH feet Rate Location/Type
06:27PM 41.2314 -75.8086 210° Southwest 245 282 4,100  Level New York Center
06:28PM 41.3832 -75.8664 304° West  Level FlightAware Approximate
06:28PM 41.2697 -75.8803 305° West 279 321 6,400  Level New York Center
06:29PM 41.4340 -75.9513 304° West  Level FlightAware Approximate
06:29PM 41.3378 -75.8994 348° North 279 321 8,000  Level New York Center
06:30PM 41.4849 -76.0409 315° West  Level FlightAware Approximate
06:30PM 41.4142 -75.9136 352° North 279 321 8,000  Level New York Center
06:31PM 41.5430 -76.1229 312° West  Level FlightAware Approximate
06:31PM 41.4886 -75.9275 352° North 274 315 9,700  Level New York Center
06:32PM 41.5694 -75.9392 354° North 279 321 11,300 1,380 Climbing New York Center
06:33PM 41.6203 -76.0097 314° West 285 328 12,500 1,200 Climbing New York Center
06:34PM 41.6553 -76.1153 294° West 295 339 13,700 1,620 Climbing New York Center
06:35PM 41.6911 -76.2403 291° West 322 371 15,800 1,740 Climbing New York Center
06:36PM 41.7214 -76.3542 290° West 331 381 17,200 1,620 Climbing New York Center
06:37PM 41.7533 -76.4706 290° West 331 381 19,000 1,680 Climbing New York Center
06:38PM 41.7836 -76.5764 291° West 336 387 20,600 1,560 Climbing New York Center
06:39PM 41.8153 -76.6903 290° West 336 387 22,200 1,140 Climbing New York Center
06:40PM 41.8469 -76.8072 290° West 336 387 23,000 780 Climbing New York Center
06:41PM 41.8836 -76.9444 290° West 347 399 23,800 480 Climbing New York Center
06:42PM 41.9225 -77.0764 292° West 366 421 24,000 60 Climbing New York Center
06:43PM 41.9608 -77.2194 290° West 390 449 24,000  Level New York Center
06:44PM 42.0028 -77.3753 290° West 421 484 24,000  Level Cleveland Center
06:45PM 42.0444 -77.5269 290° West 428 493 24,000  Level Cleveland Center
06:46PM 42.0839 -77.6817 289° West 433 498 24,000  Level Cleveland Center
06:47PM 42.1250 -77.8311 290° West 433 498 24,000  Level Cleveland Center
06:48PM 42.1642 -77.9808 289° West 433 498 24,000  Level Cleveland Center
06:49PM 42.2028 -78.1278 290° West 428 493 24,000  Level Cleveland Center
06:50PM 42.2411 -78.2778 289° West 428 493 24,000  Level Cleveland Center
06:51PM 42.2797 -78.4278 289° West 428 493 24,000  Level Cleveland Center
06:52PM 42.3156 -78.5756 288° West 422 486 24,000  Level Cleveland Center
06:53PM 42.3558 -78.7317 289° West 422 486 24,000 -60 Level Cleveland Center
06:54PM 42.3936 -78.8822 289° West 422 486 23,900 -960 Descending Cleveland Center
06:55PM 42.4208 -79.0475 283° West 411 473 22,100 -960 Descending Cleveland Center
06:56PM 42.4539 -79.1817 289° West 388 447 22,000 -60 Descending Cleveland Center
06:57PM 42.4928 -79.3075 293° West 394 453 22,000  Level Cleveland Center
06:58PM 42.5028 -79.4594 275° West 403 464 22,000  Level Cleveland Center
06:59PM 42.5125 -79.6114 275° West 408 470 22,000  Level Cleveland Center
07:00PM 42.5158 -79.7692 272° West 408 470 22,000  Level Cleveland Center
07:01PM 42.5208 -79.9239 273° West 413 475 22,000  Level Cleveland Center
07:02PM 42.5300 -80.0986 274° West 418 481 22,000  Level Cleveland Center
07:03PM 42.5369 -80.2478 274° West 422 486 22,000  Level Cleveland Center
07:04PM 42.5433 -80.4000 273° West 407 468 22,000  Level Cleveland Center
07:05PM 42.5478 -80.5522 272° West 401 461 22,000  Level Cleveland Center
07:06PM 42.5539 -80.7072 273° West 406 467 22,000  Level Cleveland Center
07:07PM 42.5600 -80.8425 274° West 406 467 22,000  Level Cleveland Center
07:08PM 42.5658 -81.0006 273° West 412 474 22,000  Level Cleveland Center
07:09PM 42.5692 -81.1556 272° West 417 480 22,000  Level Cleveland Center
07:10PM 42.5744 -81.3161 273° West 422 486 22,000  Level Cleveland Center
07:11PM 42.5881 -81.4744 277° West 422 486 22,000  Level Cleveland Center
07:12PM 42.6139 -81.6242 283° West 416 479 22,000  Level Cleveland Center
07:13PM 42.6394 -81.7856 282° West 411 473 22,000  Level Cleveland Center
07:14PM 42.6650 -81.9328 283° West 406 467 22,000  Level Cleveland Center
07:15PM 42.6922 -82.0803 284° West 406 467 22,000  Level Cleveland Center
07:16PM 42.7172 -82.2306 283° West 406 467 22,000  Level Cleveland Center
07:17PM 42.7442 -82.3783 284° West 406 467 22,000  Level Cleveland Center
07:18PM 42.7689 -82.5319 282° West 411 473 22,000  Level Cleveland Center
07:19PM 42.7933 -82.6825 283° West 411 473 22,000  Level Cleveland Center
07:20PM 42.8008 -82.8328 274° West 411 473 22,000  Level Cleveland Center
07:21PM 42.8019 -82.9800 271° West 406 467 22,000  Level Cleveland Center
07:22PM 42.8011 -83.1272 270° West 401 461 22,000  Level Cleveland Center
07:23PM 42.8019 -83.2717 270° West 396 456 22,000  Level Cleveland Center
07:24PM 42.8003 -83.4214 269° West 396 456 22,000  Level Cleveland Center
07:25PM 42.8028 -83.5744 271° West 402 463 22,000  Level Cleveland Center
07:26PM 42.8028 -83.7300 270° West 402 463 22,000  Level Cleveland Center
07:27PM 42.8006 -83.8828 269° West 402 463 22,000  Level Cleveland Center
07:28PM 42.8006 -84.0300 270° West 402 463 22,000  Level Cleveland Center
07:30PM 42.8008 -84.3281 270° West 391 450 22,000  Level Chicago Center
07:31PM 42.8006 -84.4736 270° West 388 447 22,000  Level Chicago Center
07:32PM 42.7992 -84.6194 269° West 387 445 22,000  Level Chicago Center
07:33PM 42.7975 -84.7636 269° West 383 441 22,000  Level Chicago Center
07:34PM 42.7956 -84.9094 269° West 385 443 22,000  Level Chicago Center
07:35PM 42.7939 -85.0544 269° West 384 442 22,000  Level Chicago Center
07:36PM 42.7911 -85.2283 269° West 384 442 22,000  Level Chicago Center
07:37PM 42.7767 -85.3700 262° West 383 441 22,000  Level Chicago Center
07:38PM 42.7506 -85.5103 256° West 383 441 22,000  Level Chicago Center
07:39PM 42.7264 -85.6500 257° West 380 437 22,000  Level Chicago Center
07:40PM 42.7011 -85.7911 256° West 381 438 22,000  Level Chicago Center
07:41PM 42.6761 -85.9311 256° West 379 436 22,000  Level Chicago Center
07:42PM 42.6508 -86.0711 256° West 379 436 22,000  Level Chicago Center
07:43PM 42.6206 -86.2408 256° West 384 442 22,000  Level Chicago Center
07:44PM 42.5939 -86.3781 255° West 378 435 22,000 -300 Level Chicago Center
07:45PM 42.5672 -86.5175 255° West 380 437 21,500 -1,200 Descending Chicago Center
07:47PM 42.5419 -86.6522 256° West 371 427 19,600 -1,980 Descending Chicago Center
07:48PM 42.5183 -86.7878 257° West 373 429 17,500 -2,040 Descending Chicago Center
07:49PM 42.4917 -86.9236 255° West 370 426 15,400 -2,520 Descending Chicago Center
07:50PM 42.4625 -87.0761 256° West 350 403 12,400 -2,520 Descending Chicago Center
07:51PM 42.4344 -87.1906 252° West 323 372 10,300 -1,560 Descending Chicago Center
07:52PM 42.4078 -87.2825 249° West 269 310 9,200 -1,200 Descending Chicago Center
07:53PM 42.3847 -87.3628 249° West 234 269 7,900 -1,080 Descending Chicago Center
07:54PM 42.3592 -87.4417 246° West 221 254 7,000 -480 Descending Chicago Center
07:55PM 42.3267 -87.5239 242° Southwest 250 288 7,000  Level Chicago Center
07:56PM 42.2739 -87.5881 222° Southwest 234 269 7,000  Level Chicago Center
07:57PM 42.2269 -87.6417 220° Southwest 224 258 7,000 -540 Level Chicago Center
07:58PM 42.1811 -87.6928 220° Southwest 215 247 5,900 -1,500 Descending Chicago Center
07:59PM 42.1292 -87.7519 220° Southwest 206 237 4,000 -1,500 Descending Chicago Center
08:00PM 42.0847 -87.8008 219° Southwest 207 238 2,900 -1,080 Descending Chicago Center